sensor_id;sensor_type;location;lat;lon;timestamp;P1;durP1;ratioP1;P2;durP2;ratioP2
22843;SDS011;11588;51.178;4.852;2024-01-06T00:00:30;9.13;;;2.75;;
22843;SDS011;11588;51.178;4.852;2024-01-06T00:02:56;6.85;;;2.47;;
22843;SDS011;11588;51.178;4.852;2024-01-06T00:05:24;12.13;;;2.50;;
22843;SDS011;11588;51.178;4.852;2024-01-06T00:07:51;9.88;;;2.45;;
22843;SDS011;11588;51.178;4.852;2024-01-06T00:10:17;12.15;;;2.47;;
22843;SDS011;11588;51.178;4.852;2024-01-06T00:12:44;11.10;;;2.40;;
22843;SDS011;11588;51.178;4.852;2024-01-06T00:15:11;10.20;;;2.47;;
22843;SDS011;11588;51.178;4.852;2024-01-06T00:17:37;8.13;;;2.65;;
22843;SDS011;11588;51.178;4.852;2024-01-06T00:20:04;8.32;;;2.42;;
22843;SDS011;11588;51.178;4.852;2024-01-06T00:22:31;6.72;;;2.00;;
22843;SDS011;11588;51.178;4.852;2024-01-06T00:24:57;8.02;;;2.17;;
22843;SDS011;11588;51.178;4.852;2024-01-06T00:27:23;9.43;;;2.63;;
22843;SDS011;11588;51.178;4.852;2024-01-06T00:29:50;7.95;;;2.70;;
22843;SDS011;11588;51.178;4.852;2024-01-06T00:32:16;9.00;;;2.60;;
22843;SDS011;11588;51.178;4.852;2024-01-06T00:34:42;6.10;;;2.90;;
22843;SDS011;11588;51.178;4.852;2024-01-06T00:37:09;7.18;;;2.78;;
22843;SDS011;11588;51.178;4.852;2024-01-06T00:39:35;13.40;;;3.60;;
22843;SDS011;11588;51.178;4.852;2024-01-06T00:42:01;11.77;;;4.30;;
22843;SDS011;11588;51.178;4.852;2024-01-06T00:44:28;7.65;;;3.58;;
22843;SDS011;11588;51.178;4.852;2024-01-06T00:46:54;9.02;;;3.45;;
22843;SDS011;11588;51.178;4.852;2024-01-06T00:49:20;12.05;;;4.43;;
22843;SDS011;11588;51.178;4.852;2024-01-06T00:51:47;9.20;;;5.13;;
22843;SDS011;11588;51.178;4.852;2024-01-06T00:54:13;10.43;;;5.60;;
22843;SDS011;11588;51.178;4.852;2024-01-06T00:56:39;10.82;;;5.60;;
22843;SDS011;11588;51.178;4.852;2024-01-06T00:59:08;11.25;;;6.30;;
22843;SDS011;11588;51.178;4.852;2024-01-06T01:01:34;10.07;;;7.10;;
22843;SDS011;11588;51.178;4.852;2024-01-06T01:04:01;11.93;;;6.82;;
22843;SDS011;11588;51.178;4.852;2024-01-06T01:06:27;10.85;;;7.32;;
22843;SDS011;11588;51.178;4.852;2024-01-06T01:08:54;15.30;;;8.45;;
22843;SDS011;11588;51.178;4.852;2024-01-06T01:11:20;17.30;;;8.90;;
22843;SDS011;11588;51.178;4.852;2024-01-06T01:13:47;18.15;;;9.70;;
22843;SDS011;11588;51.178;4.852;2024-01-06T01:16:13;17.88;;;9.63;;
22843;SDS011;11588;51.178;4.852;2024-01-06T01:18:40;18.85;;;11.07;;
22843;SDS011;11588;51.178;4.852;2024-01-06T01:21:06;20.08;;;10.73;;
22843;SDS011;11588;51.178;4.852;2024-01-06T01:23:33;21.92;;;11.85;;
22843;SDS011;11588;51.178;4.852;2024-01-06T01:25:59;24.17;;;11.35;;
22843;SDS011;11588;51.178;4.852;2024-01-06T01:28:26;20.60;;;11.18;;
22843;SDS011;11588;51.178;4.852;2024-01-06T01:30:52;21.35;;;11.68;;
22843;SDS011;11588;51.178;4.852;2024-01-06T01:33:19;23.50;;;12.43;;
22843;SDS011;11588;51.178;4.852;2024-01-06T01:35:45;21.08;;;12.13;;
22843;SDS011;11588;51.178;4.852;2024-01-06T01:38:12;29.52;;;13.25;;
22843;SDS011;11588;51.178;4.852;2024-01-06T01:40:38;29.73;;;15.18;;
22843;SDS011;11588;51.178;4.852;2024-01-06T01:43:04;27.38;;;14.85;;
22843;SDS011;11588;51.178;4.852;2024-01-06T01:45:31;31.92;;;15.93;;
22843;SDS011;11588;51.178;4.852;2024-01-06T01:47:57;33.65;;;16.48;;
22843;SDS011;11588;51.178;4.852;2024-01-06T01:50:24;34.17;;;17.42;;
22843;SDS011;11588;51.178;4.852;2024-01-06T01:52:56;32.30;;;15.88;;
22843;SDS011;11588;51.178;4.852;2024-01-06T01:55:23;32.63;;;16.60;;
22843;SDS011;11588;51.178;4.852;2024-01-06T01:57:50;35.60;;;16.17;;
22843;SDS011;11588;51.178;4.852;2024-01-06T02:00:17;30.27;;;15.93;;
22843;SDS011;11588;51.178;4.852;2024-01-06T02:02:43;26.67;;;14.93;;
22843;SDS011;11588;51.178;4.852;2024-01-06T02:05:10;25.75;;;14.45;;
22843;SDS011;11588;51.178;4.852;2024-01-06T02:07:36;26.00;;;13.65;;
22843;SDS011;11588;51.178;4.852;2024-01-06T02:10:03;24.23;;;13.48;;
22843;SDS011;11588;51.178;4.852;2024-01-06T02:12:29;25.08;;;13.35;;
22843;SDS011;11588;51.178;4.852;2024-01-06T02:14:56;21.00;;;13.18;;
22843;SDS011;11588;51.178;4.852;2024-01-06T02:17:22;25.63;;;12.55;;
22843;SDS011;11588;51.178;4.852;2024-01-06T02:19:48;23.90;;;12.05;;
22843;SDS011;11588;51.178;4.852;2024-01-06T02:22:15;21.35;;;12.38;;
22843;SDS011;11588;51.178;4.852;2024-01-06T02:24:41;25.58;;;13.35;;
22843;SDS011;11588;51.178;4.852;2024-01-06T02:27:08;22.20;;;12.02;;
22843;SDS011;11588;51.178;4.852;2024-01-06T02:29:34;21.73;;;11.38;;
22843;SDS011;11588;51.178;4.852;2024-01-06T02:32:00;21.23;;;11.82;;
22843;SDS011;11588;51.178;4.852;2024-01-06T02:34:27;21.58;;;11.00;;
22843;SDS011;11588;51.178;4.852;2024-01-06T02:36:53;20.45;;;11.90;;
22843;SDS011;11588;51.178;4.852;2024-01-06T02:39:20;21.00;;;11.40;;
22843;SDS011;11588;51.178;4.852;2024-01-06T02:41:46;20.30;;;12.23;;
22843;SDS011;11588;51.178;4.852;2024-01-06T02:44:12;17.58;;;11.25;;
22843;SDS011;11588;51.178;4.852;2024-01-06T02:46:40;22.85;;;11.98;;
22843;SDS011;11588;51.178;4.852;2024-01-06T02:49:07;25.20;;;11.18;;
22843;SDS011;11588;51.178;4.852;2024-01-06T02:51:33;22.45;;;11.77;;
22843;SDS011;11588;51.178;4.852;2024-01-06T02:54:00;17.45;;;11.18;;
22843;SDS011;11588;51.178;4.852;2024-01-06T02:56:28;21.02;;;11.68;;
22843;SDS011;11588;51.178;4.852;2024-01-06T02:58:53;17.65;;;11.10;;
22843;SDS011;11588;51.178;4.852;2024-01-06T03:01:20;19.50;;;11.98;;
22843;SDS011;11588;51.178;4.852;2024-01-06T03:03:46;19.45;;;11.77;;
22843;SDS011;11588;51.178;4.852;2024-01-06T03:06:12;21.50;;;11.45;;
22843;SDS011;11588;51.178;4.852;2024-01-06T03:08:39;20.98;;;11.75;;
22843;SDS011;11588;51.178;4.852;2024-01-06T03:11:05;22.67;;;11.55;;
22843;SDS011;11588;51.178;4.852;2024-01-06T03:13:32;22.92;;;12.77;;
22843;SDS011;11588;51.178;4.852;2024-01-06T03:16:01;20.15;;;11.63;;
22843;SDS011;11588;51.178;4.852;2024-01-06T03:18:27;19.40;;;11.55;;
22843;SDS011;11588;51.178;4.852;2024-01-06T03:20:53;22.95;;;11.65;;
22843;SDS011;11588;51.178;4.852;2024-01-06T03:23:20;21.00;;;10.32;;
22843;SDS011;11588;51.178;4.852;2024-01-06T03:25:46;19.95;;;11.02;;
22843;SDS011;11588;51.178;4.852;2024-01-06T03:28:14;18.35;;;10.48;;
22843;SDS011;11588;51.178;4.852;2024-01-06T03:30:40;16.67;;;10.25;;
22843;SDS011;11588;51.178;4.852;2024-01-06T03:33:06;18.40;;;9.73;;
22843;SDS011;11588;51.178;4.852;2024-01-06T03:35:33;17.73;;;9.80;;
22843;SDS011;11588;51.178;4.852;2024-01-06T03:37:59;17.13;;;9.88;;
22843;SDS011;11588;51.178;4.852;2024-01-06T03:40:25;18.27;;;8.73;;
22843;SDS011;11588;51.178;4.852;2024-01-06T03:42:52;20.80;;;9.60;;
22843;SDS011;11588;51.178;4.852;2024-01-06T03:45:20;18.02;;;9.07;;
22843;SDS011;11588;51.178;4.852;2024-01-06T03:47:46;16.25;;;9.05;;
22843;SDS011;11588;51.178;4.852;2024-01-06T03:50:13;20.85;;;10.05;;
22843;SDS011;11588;51.178;4.852;2024-01-06T03:52:39;19.25;;;9.70;;
22843;SDS011;11588;51.178;4.852;2024-01-06T03:55:06;18.25;;;9.82;;
22843;SDS011;11588;51.178;4.852;2024-01-06T03:57:32;18.10;;;9.68;;
22843;SDS011;11588;51.178;4.852;2024-01-06T03:59:59;18.90;;;9.68;;
22843;SDS011;11588;51.178;4.852;2024-01-06T04:02:25;22.42;;;10.10;;
22843;SDS011;11588;51.178;4.852;2024-01-06T04:04:51;19.42;;;10.07;;
22843;SDS011;11588;51.178;4.852;2024-01-06T04:07:18;18.27;;;10.98;;
22843;SDS011;11588;51.178;4.852;2024-01-06T04:09:44;15.43;;;10.10;;
22843;SDS011;11588;51.178;4.852;2024-01-06T04:12:11;16.20;;;9.88;;
22843;SDS011;11588;51.178;4.852;2024-01-06T04:14:37;18.42;;;9.95;;
22843;SDS011;11588;51.178;4.852;2024-01-06T04:17:03;20.67;;;9.52;;
22843;SDS011;11588;51.178;4.852;2024-01-06T04:19:30;17.90;;;9.82;;
22843;SDS011;11588;51.178;4.852;2024-01-06T04:21:56;18.67;;;9.25;;
22843;SDS011;11588;51.178;4.852;2024-01-06T04:24:23;14.23;;;8.60;;
22843;SDS011;11588;51.178;4.852;2024-01-06T04:26:49;14.02;;;8.27;;
22843;SDS011;11588;51.178;4.852;2024-01-06T04:29:16;13.88;;;8.35;;
22843;SDS011;11588;51.178;4.852;2024-01-06T04:31:42;19.38;;;8.95;;
22843;SDS011;11588;51.178;4.852;2024-01-06T04:34:09;13.63;;;7.88;;
22843;SDS011;11588;51.178;4.852;2024-01-06T04:36:35;19.30;;;8.05;;
22843;SDS011;11588;51.178;4.852;2024-01-06T04:39:01;13.40;;;7.30;;
22843;SDS011;11588;51.178;4.852;2024-01-06T04:41:29;16.58;;;9.20;;
22843;SDS011;11588;51.178;4.852;2024-01-06T04:43:55;16.05;;;8.90;;
22843;SDS011;11588;51.178;4.852;2024-01-06T04:46:21;17.77;;;8.77;;
22843;SDS011;11588;51.178;4.852;2024-01-06T04:48:48;16.48;;;8.70;;
22843;SDS011;11588;51.178;4.852;2024-01-06T04:51:14;15.10;;;8.90;;
22843;SDS011;11588;51.178;4.852;2024-01-06T04:53:41;15.95;;;8.93;;
22843;SDS011;11588;51.178;4.852;2024-01-06T04:56:08;16.85;;;8.65;;
22843;SDS011;11588;51.178;4.852;2024-01-06T04:58:34;15.38;;;7.72;;
22843;SDS011;11588;51.178;4.852;2024-01-06T05:01:00;17.25;;;9.02;;
22843;SDS011;11588;51.178;4.852;2024-01-06T05:03:27;14.38;;;7.95;;
22843;SDS011;11588;51.178;4.852;2024-01-06T05:05:53;13.57;;;8.18;;
22843;SDS011;11588;51.178;4.852;2024-01-06T05:08:19;13.95;;;7.70;;
22843;SDS011;11588;51.178;4.852;2024-01-06T05:10:48;17.13;;;8.10;;
22843;SDS011;11588;51.178;4.852;2024-01-06T05:13:15;13.55;;;7.80;;
22843;SDS011;11588;51.178;4.852;2024-01-06T05:15:41;14.15;;;8.13;;
22843;SDS011;11588;51.178;4.852;2024-01-06T05:18:08;17.90;;;8.00;;
22843;SDS011;11588;51.178;4.852;2024-01-06T05:20:35;13.38;;;7.72;;
22843;SDS011;11588;51.178;4.852;2024-01-06T05:23:01;12.32;;;7.50;;
22843;SDS011;11588;51.178;4.852;2024-01-06T05:25:28;12.27;;;7.43;;
22843;SDS011;11588;51.178;4.852;2024-01-06T05:27:54;12.77;;;6.90;;
22843;SDS011;11588;51.178;4.852;2024-01-06T05:30:20;12.68;;;6.68;;
22843;SDS011;11588;51.178;4.852;2024-01-06T05:32:47;11.20;;;7.30;;
22843;SDS011;11588;51.178;4.852;2024-01-06T05:35:13;14.25;;;7.18;;
22843;SDS011;11588;51.178;4.852;2024-01-06T05:37:41;10.65;;;7.75;;
22843;SDS011;11588;51.178;4.852;2024-01-06T05:40:08;13.30;;;7.78;;
22843;SDS011;11588;51.178;4.852;2024-01-06T05:42:34;11.07;;;6.97;;
22843;SDS011;11588;51.178;4.852;2024-01-06T05:45:00;11.98;;;6.97;;
22843;SDS011;11588;51.178;4.852;2024-01-06T05:47:27;11.18;;;7.45;;
22843;SDS011;11588;51.178;4.852;2024-01-06T05:49:53;15.75;;;8.80;;
22843;SDS011;11588;51.178;4.852;2024-01-06T05:52:20;19.83;;;10.52;;
22843;SDS011;11588;51.178;4.852;2024-01-06T05:54:46;18.73;;;10.73;;
22843;SDS011;11588;51.178;4.852;2024-01-06T05:57:12;17.15;;;10.88;;
22843;SDS011;11588;51.178;4.852;2024-01-06T05:59:38;24.58;;;11.93;;
22843;SDS011;11588;51.178;4.852;2024-01-06T06:02:05;19.50;;;11.40;;
22843;SDS011;11588;51.178;4.852;2024-01-06T06:04:31;16.08;;;11.13;;
22843;SDS011;11588;51.178;4.852;2024-01-06T06:06:58;21.30;;;12.43;;
22843;SDS011;11588;51.178;4.852;2024-01-06T06:09:24;19.92;;;12.05;;
22843;SDS011;11588;51.178;4.852;2024-01-06T06:11:50;19.45;;;11.98;;
22843;SDS011;11588;51.178;4.852;2024-01-06T06:14:16;18.77;;;12.52;;
22843;SDS011;11588;51.178;4.852;2024-01-06T06:16:43;20.10;;;12.13;;
22843;SDS011;11588;51.178;4.852;2024-01-06T06:19:09;18.70;;;12.40;;
22843;SDS011;11588;51.178;4.852;2024-01-06T06:21:35;19.48;;;11.98;;
22843;SDS011;11588;51.178;4.852;2024-01-06T06:24:02;18.70;;;11.40;;
22843;SDS011;11588;51.178;4.852;2024-01-06T06:26:28;25.77;;;12.63;;
22843;SDS011;11588;51.178;4.852;2024-01-06T06:28:55;20.85;;;11.65;;
22843;SDS011;11588;51.178;4.852;2024-01-06T06:31:21;19.98;;;12.55;;
22843;SDS011;11588;51.178;4.852;2024-01-06T06:33:47;19.45;;;11.77;;
22843;SDS011;11588;51.178;4.852;2024-01-06T06:36:14;22.17;;;13.15;;
22843;SDS011;11588;51.178;4.852;2024-01-06T06:38:40;18.33;;;11.25;;
22843;SDS011;11588;51.178;4.852;2024-01-06T06:41:06;22.35;;;12.95;;
22843;SDS011;11588;51.178;4.852;2024-01-06T06:43:33;21.13;;;11.55;;
22843;SDS011;11588;51.178;4.852;2024-01-06T06:45:59;21.00;;;11.52;;
22843;SDS011;11588;51.178;4.852;2024-01-06T06:48:26;18.33;;;11.18;;
22843;SDS011;11588;51.178;4.852;2024-01-06T06:50:52;22.27;;;12.10;;
22843;SDS011;11588;51.178;4.852;2024-01-06T06:53:19;18.83;;;11.35;;
22843;SDS011;11588;51.178;4.852;2024-01-06T06:55:45;22.40;;;11.48;;
22843;SDS011;11588;51.178;4.852;2024-01-06T06:58:11;17.65;;;11.23;;
22843;SDS011;11588;51.178;4.852;2024-01-06T07:00:38;21.25;;;10.90;;
22843;SDS011;11588;51.178;4.852;2024-01-06T07:03:05;17.50;;;10.05;;
22843;SDS011;11588;51.178;4.852;2024-01-06T07:05:31;18.27;;;10.50;;
22843;SDS011;11588;51.178;4.852;2024-01-06T07:07:59;17.58;;;10.38;;
22843;SDS011;11588;51.178;4.852;2024-01-06T07:10:26;15.18;;;9.48;;
22843;SDS011;11588;51.178;4.852;2024-01-06T07:12:52;13.93;;;9.07;;
22843;SDS011;11588;51.178;4.852;2024-01-06T07:15:18;17.42;;;9.60;;
22843;SDS011;11588;51.178;4.852;2024-01-06T07:17:45;17.60;;;8.80;;
22843;SDS011;11588;51.178;4.852;2024-01-06T07:20:11;13.30;;;9.32;;
22843;SDS011;11588;51.178;4.852;2024-01-06T07:22:38;15.05;;;8.95;;
22843;SDS011;11588;51.178;4.852;2024-01-06T07:25:04;14.05;;;8.73;;
22843;SDS011;11588;51.178;4.852;2024-01-06T07:27:31;17.85;;;10.02;;
22843;SDS011;11588;51.178;4.852;2024-01-06T07:29:57;17.95;;;10.30;;
22843;SDS011;11588;51.178;4.852;2024-01-06T07:32:23;16.30;;;9.93;;
22843;SDS011;11588;51.178;4.852;2024-01-06T07:34:50;17.27;;;10.57;;
22843;SDS011;11588;51.178;4.852;2024-01-06T07:37:17;17.10;;;10.30;;
22843;SDS011;11588;51.178;4.852;2024-01-06T07:39:43;19.38;;;11.30;;
22843;SDS011;11588;51.178;4.852;2024-01-06T07:42:10;18.40;;;11.07;;
22843;SDS011;11588;51.178;4.852;2024-01-06T07:44:36;18.08;;;10.57;;
22843;SDS011;11588;51.178;4.852;2024-01-06T07:47:02;19.70;;;9.90;;
22843;SDS011;11588;51.178;4.852;2024-01-06T07:49:31;18.88;;;10.60;;
22843;SDS011;11588;51.178;4.852;2024-01-06T07:51:57;19.25;;;10.98;;
22843;SDS011;11588;51.178;4.852;2024-01-06T07:54:23;15.63;;;10.25;;
22843;SDS011;11588;51.178;4.852;2024-01-06T07:56:50;15.00;;;9.52;;
22843;SDS011;11588;51.178;4.852;2024-01-06T07:59:16;20.30;;;9.73;;
22843;SDS011;11588;51.178;4.852;2024-01-06T08:01:43;16.02;;;9.65;;
22843;SDS011;11588;51.178;4.852;2024-01-06T08:04:09;21.67;;;11.43;;
22843;SDS011;11588;51.178;4.852;2024-01-06T08:06:36;20.65;;;10.70;;
22843;SDS011;11588;51.178;4.852;2024-01-06T08:09:02;19.05;;;10.98;;
22843;SDS011;11588;51.178;4.852;2024-01-06T08:11:29;21.60;;;11.23;;
22843;SDS011;11588;51.178;4.852;2024-01-06T08:13:55;18.83;;;10.60;;
22843;SDS011;11588;51.178;4.852;2024-01-06T08:16:21;19.63;;;10.98;;
22843;SDS011;11588;51.178;4.852;2024-01-06T08:18:48;17.25;;;10.13;;
22843;SDS011;11588;51.178;4.852;2024-01-06T08:21:14;12.43;;;8.52;;
22843;SDS011;11588;51.178;4.852;2024-01-06T08:23:41;15.05;;;8.85;;
22843;SDS011;11588;51.178;4.852;2024-01-06T08:26:08;14.15;;;7.82;;
22843;SDS011;11588;51.178;4.852;2024-01-06T08:28:34;13.43;;;8.60;;
22843;SDS011;11588;51.178;4.852;2024-01-06T08:31:01;15.77;;;8.18;;
22843;SDS011;11588;51.178;4.852;2024-01-06T08:33:27;12.05;;;6.97;;
22843;SDS011;11588;51.178;4.852;2024-01-06T08:35:53;14.57;;;6.95;;
22843;SDS011;11588;51.178;4.852;2024-01-06T08:38:20;9.25;;;6.68;;
22843;SDS011;11588;51.178;4.852;2024-01-06T08:40:48;12.45;;;6.35;;
22843;SDS011;11588;51.178;4.852;2024-01-06T08:43:16;14.65;;;7.65;;
22843;SDS011;11588;51.178;4.852;2024-01-06T08:45:43;14.50;;;6.63;;
22843;SDS011;11588;51.178;4.852;2024-01-06T08:48:09;10.55;;;6.80;;
22843;SDS011;11588;51.178;4.852;2024-01-06T08:50:37;9.45;;;6.53;;
22843;SDS011;11588;51.178;4.852;2024-01-06T08:53:04;9.45;;;5.93;;
22843;SDS011;11588;51.178;4.852;2024-01-06T08:55:31;9.70;;;6.10;;
22843;SDS011;11588;51.178;4.852;2024-01-06T08:57:57;7.57;;;5.70;;
22843;SDS011;11588;51.178;4.852;2024-01-06T09:00:23;12.68;;;5.80;;
22843;SDS011;11588;51.178;4.852;2024-01-06T09:02:50;10.95;;;6.93;;
22843;SDS011;11588;51.178;4.852;2024-01-06T09:05:16;10.55;;;6.90;;
22843;SDS011;11588;51.178;4.852;2024-01-06T09:07:43;9.55;;;6.22;;
22843;SDS011;11588;51.178;4.852;2024-01-06T09:10:09;12.63;;;6.82;;
22843;SDS011;11588;51.178;4.852;2024-01-06T09:12:36;9.93;;;5.97;;
22843;SDS011;11588;51.178;4.852;2024-01-06T09:15:02;11.60;;;6.82;;
22843;SDS011;11588;51.178;4.852;2024-01-06T09:17:29;10.07;;;5.97;;
22843;SDS011;11588;51.178;4.852;2024-01-06T09:19:55;7.35;;;5.40;;
22843;SDS011;11588;51.178;4.852;2024-01-06T09:22:22;10.43;;;6.18;;
22843;SDS011;11588;51.178;4.852;2024-01-06T09:24:50;8.25;;;5.53;;
22843;SDS011;11588;51.178;4.852;2024-01-06T09:27:16;8.38;;;6.15;;
22843;SDS011;11588;51.178;4.852;2024-01-06T09:29:42;8.48;;;5.50;;
22843;SDS011;11588;51.178;4.852;2024-01-06T09:32:08;8.45;;;5.70;;
22843;SDS011;11588;51.178;4.852;2024-01-06T09:34:34;9.35;;;5.82;;
22843;SDS011;11588;51.178;4.852;2024-01-06T09:37:01;9.48;;;6.15;;
22843;SDS011;11588;51.178;4.852;2024-01-06T09:39:27;9.00;;;5.80;;
22843;SDS011;11588;51.178;4.852;2024-01-06T09:41:54;10.93;;;6.28;;
22843;SDS011;11588;51.178;4.852;2024-01-06T09:44:20;11.68;;;6.00;;
22843;SDS011;11588;51.178;4.852;2024-01-06T09:46:46;13.68;;;6.95;;
22843;SDS011;11588;51.178;4.852;2024-01-06T09:49:13;8.82;;;6.47;;
22843;SDS011;11588;51.178;4.852;2024-01-06T09:51:41;11.75;;;6.40;;
22843;SDS011;11588;51.178;4.852;2024-01-06T09:54:09;12.32;;;7.60;;
22843;SDS011;11588;51.178;4.852;2024-01-06T09:56:35;13.77;;;7.70;;
22843;SDS011;11588;51.178;4.852;2024-01-06T09:59:02;13.13;;;8.10;;
22843;SDS011;11588;51.178;4.852;2024-01-06T10:01:29;11.45;;;7.63;;
22843;SDS011;11588;51.178;4.852;2024-01-06T10:03:55;11.82;;;8.00;;
22843;SDS011;11588;51.178;4.852;2024-01-06T10:06:22;10.90;;;7.35;;
22843;SDS011;11588;51.178;4.852;2024-01-06T10:08:49;15.23;;;8.20;;
22843;SDS011;11588;51.178;4.852;2024-01-06T10:11:16;11.35;;;8.18;;
22843;SDS011;11588;51.178;4.852;2024-01-06T10:13:43;15.60;;;8.25;;
22843;SDS011;11588;51.178;4.852;2024-01-06T10:16:09;13.48;;;8.30;;
22843;SDS011;11588;51.178;4.852;2024-01-06T10:18:36;14.75;;;8.38;;
22843;SDS011;11588;51.178;4.852;2024-01-06T10:21:03;13.15;;;8.13;;
22843;SDS011;11588;51.178;4.852;2024-01-06T10:23:31;15.68;;;8.02;;
22843;SDS011;11588;51.178;4.852;2024-01-06T10:25:58;10.60;;;7.72;;
22843;SDS011;11588;51.178;4.852;2024-01-06T10:28:25;11.32;;;7.60;;
22843;SDS011;11588;51.178;4.852;2024-01-06T10:30:51;11.13;;;7.10;;
22843;SDS011;11588;51.178;4.852;2024-01-06T10:33:19;9.50;;;7.38;;
22843;SDS011;11588;51.178;4.852;2024-01-06T10:35:46;11.30;;;7.10;;
22843;SDS011;11588;51.178;4.852;2024-01-06T10:38:13;8.98;;;6.32;;
22843;SDS011;11588;51.178;4.852;2024-01-06T10:43:21;7.35;;;5.88;;
22843;SDS011;11588;51.178;4.852;2024-01-06T10:45:48;10.05;;;6.40;;
22843;SDS011;11588;51.178;4.852;2024-01-06T10:48:15;10.90;;;7.18;;
22843;SDS011;11588;51.178;4.852;2024-01-06T10:50:42;8.02;;;6.55;;
22843;SDS011;11588;51.178;4.852;2024-01-06T10:53:09;8.93;;;6.28;;
22843;SDS011;11588;51.178;4.852;2024-01-06T10:55:35;8.60;;;7.18;;
22843;SDS011;11588;51.178;4.852;2024-01-06T10:58:03;10.52;;;6.28;;
22843;SDS011;11588;51.178;4.852;2024-01-06T11:00:31;10.10;;;6.93;;
22843;SDS011;11588;51.178;4.852;2024-01-06T11:02:57;13.13;;;7.80;;
22843;SDS011;11588;51.178;4.852;2024-01-06T11:05:25;12.40;;;7.78;;
22843;SDS011;11588;51.178;4.852;2024-01-06T11:07:52;15.73;;;8.43;;
22843;SDS011;11588;51.178;4.852;2024-01-06T11:10:27;11.77;;;8.32;;
22843;SDS011;11588;51.178;4.852;2024-01-06T11:15:38;16.88;;;9.80;;
22843;SDS011;11588;51.178;4.852;2024-01-06T11:23:23;12.48;;;7.63;;
22843;SDS011;11588;51.178;4.852;2024-01-06T11:25:50;11.07;;;7.95;;
22843;SDS011;11588;51.178;4.852;2024-01-06T11:28:19;12.05;;;7.53;;
22843;SDS011;11588;51.178;4.852;2024-01-06T11:30:45;10.90;;;6.93;;
22843;SDS011;11588;51.178;4.852;2024-01-06T11:33:11;11.05;;;7.00;;
22843;SDS011;11588;51.178;4.852;2024-01-06T11:35:39;12.57;;;6.60;;
22843;SDS011;11588;51.178;4.852;2024-01-06T11:38:06;9.63;;;6.80;;
22843;SDS011;11588;51.178;4.852;2024-01-06T11:40:34;9.50;;;6.57;;
22843;SDS011;11588;51.178;4.852;2024-01-06T11:45:29;9.60;;;6.70;;
22843;SDS011;11588;51.178;4.852;2024-01-06T11:47:56;13.93;;;7.63;;
22843;SDS011;11588;51.178;4.852;2024-01-06T11:50:26;11.63;;;6.90;;
22843;SDS011;11588;51.178;4.852;2024-01-06T11:52:53;14.48;;;7.47;;
22843;SDS011;11588;51.178;4.852;2024-01-06T11:55:19;10.75;;;6.50;;
22843;SDS011;11588;51.178;4.852;2024-01-06T11:57:46;13.70;;;6.80;;
22843;SDS011;11588;51.178;4.852;2024-01-06T12:00:13;9.55;;;6.55;;
22843;SDS011;11588;51.178;4.852;2024-01-06T12:02:40;9.25;;;5.47;;
22843;SDS011;11588;51.178;4.852;2024-01-06T12:05:12;8.48;;;6.10;;
22843;SDS011;11588;51.178;4.852;2024-01-06T12:07:41;9.55;;;6.00;;
22843;SDS011;11588;51.178;4.852;2024-01-06T12:10:08;7.72;;;5.65;;
22843;SDS011;11588;51.178;4.852;2024-01-06T12:12:35;8.30;;;5.38;;
22843;SDS011;11588;51.178;4.852;2024-01-06T12:15:01;7.47;;;5.72;;
22843;SDS011;11588;51.178;4.852;2024-01-06T12:17:29;9.23;;;5.63;;
22843;SDS011;11588;51.178;4.852;2024-01-06T12:19:56;8.38;;;5.88;;
22843;SDS011;11588;51.178;4.852;2024-01-06T12:22:22;9.43;;;5.75;;
22843;SDS011;11588;51.178;4.852;2024-01-06T12:24:49;10.38;;;6.90;;
22843;SDS011;11588;51.178;4.852;2024-01-06T12:27:16;8.48;;;6.13;;
22843;SDS011;11588;51.178;4.852;2024-01-06T12:29:43;13.80;;;6.53;;
22843;SDS011;11588;51.178;4.852;2024-01-06T12:32:10;10.27;;;5.93;;
22843;SDS011;11588;51.178;4.852;2024-01-06T12:34:39;6.20;;;5.05;;
22843;SDS011;11588;51.178;4.852;2024-01-06T12:37:06;9.30;;;5.70;;
22843;SDS011;11588;51.178;4.852;2024-01-06T12:39:35;7.72;;;5.57;;
22843;SDS011;11588;51.178;4.852;2024-01-06T12:42:01;8.32;;;5.80;;
22843;SDS011;11588;51.178;4.852;2024-01-06T12:44:28;11.38;;;5.70;;
22843;SDS011;11588;51.178;4.852;2024-01-06T12:46:54;9.85;;;5.93;;
22843;SDS011;11588;51.178;4.852;2024-01-06T12:49:21;8.45;;;6.13;;
22843;SDS011;11588;51.178;4.852;2024-01-06T12:51:47;10.32;;;6.22;;
22843;SDS011;11588;51.178;4.852;2024-01-06T12:54:14;7.13;;;5.82;;
22843;SDS011;11588;51.178;4.852;2024-01-06T12:56:40;9.70;;;6.30;;
22843;SDS011;11588;51.178;4.852;2024-01-06T12:59:07;8.38;;;5.90;;
22843;SDS011;11588;51.178;4.852;2024-01-06T13:01:33;10.90;;;6.18;;
22843;SDS011;11588;51.178;4.852;2024-01-06T13:04:00;11.48;;;6.43;;
22843;SDS011;11588;51.178;4.852;2024-01-06T13:06:27;8.85;;;6.22;;
22843;SDS011;11588;51.178;4.852;2024-01-06T13:08:53;7.60;;;5.88;;
22843;SDS011;11588;51.178;4.852;2024-01-06T13:11:20;10.93;;;6.28;;
22843;SDS011;11588;51.178;4.852;2024-01-06T13:13:46;9.27;;;6.18;;
22843;SDS011;11588;51.178;4.852;2024-01-06T13:16:13;11.52;;;6.65;;
22843;SDS011;11588;51.178;4.852;2024-01-06T13:18:39;10.55;;;6.75;;
22843;SDS011;11588;51.178;4.852;2024-01-06T13:21:05;7.30;;;5.90;;
22843;SDS011;11588;51.178;4.852;2024-01-06T13:23:31;10.65;;;6.30;;
22843;SDS011;11588;51.178;4.852;2024-01-06T13:25:58;8.63;;;6.25;;
22843;SDS011;11588;51.178;4.852;2024-01-06T13:28:24;9.68;;;6.72;;
22843;SDS011;11588;51.178;4.852;2024-01-06T13:30:51;10.30;;;6.70;;
22843;SDS011;11588;51.178;4.852;2024-01-06T13:33:18;10.77;;;6.55;;
22843;SDS011;11588;51.178;4.852;2024-01-06T13:35:44;11.05;;;6.47;;
22843;SDS011;11588;51.178;4.852;2024-01-06T13:38:11;10.15;;;6.60;;
22843;SDS011;11588;51.178;4.852;2024-01-06T13:40:37;8.50;;;6.63;;
22843;SDS011;11588;51.178;4.852;2024-01-06T13:43:04;9.05;;;5.55;;
22843;SDS011;11588;51.178;4.852;2024-01-06T13:45:32;8.18;;;5.70;;
22843;SDS011;11588;51.178;4.852;2024-01-06T13:47:59;8.02;;;5.60;;
22843;SDS011;11588;51.178;4.852;2024-01-06T13:50:26;10.98;;;5.93;;
22843;SDS011;11588;51.178;4.852;2024-01-06T13:52:52;7.40;;;5.60;;
22843;SDS011;11588;51.178;4.852;2024-01-06T13:55:18;8.90;;;5.70;;
22843;SDS011;11588;51.178;4.852;2024-01-06T13:57:45;9.18;;;5.82;;
22843;SDS011;11588;51.178;4.852;2024-01-06T14:00:11;8.85;;;6.30;;
22843;SDS011;11588;51.178;4.852;2024-01-06T14:02:40;10.23;;;6.18;;
22843;SDS011;11588;51.178;4.852;2024-01-06T14:05:07;10.15;;;5.90;;
22843;SDS011;11588;51.178;4.852;2024-01-06T14:07:36;10.32;;;5.88;;
22843;SDS011;11588;51.178;4.852;2024-01-06T14:10:04;10.10;;;6.63;;
22843;SDS011;11588;51.178;4.852;2024-01-06T14:12:32;9.98;;;6.75;;
22843;SDS011;11588;51.178;4.852;2024-01-06T14:14:58;9.23;;;5.65;;
22843;SDS011;11588;51.178;4.852;2024-01-06T14:17:27;8.93;;;6.25;;
22843;SDS011;11588;51.178;4.852;2024-01-06T14:19:53;11.07;;;6.00;;
22843;SDS011;11588;51.178;4.852;2024-01-06T14:22:20;7.90;;;5.60;;
22843;SDS011;11588;51.178;4.852;2024-01-06T14:24:46;8.70;;;6.30;;
22843;SDS011;11588;51.178;4.852;2024-01-06T14:27:12;5.97;;;5.30;;
22843;SDS011;11588;51.178;4.852;2024-01-06T14:29:39;7.57;;;5.68;;
22843;SDS011;11588;51.178;4.852;2024-01-06T14:32:05;8.32;;;4.70;;
22843;SDS011;11588;51.178;4.852;2024-01-06T14:34:32;7.47;;;5.22;;
22843;SDS011;11588;51.178;4.852;2024-01-06T14:37:00;7.25;;;4.30;;
22843;SDS011;11588;51.178;4.852;2024-01-06T14:39:26;5.93;;;4.03;;
22843;SDS011;11588;51.178;4.852;2024-01-06T14:41:53;7.20;;;4.40;;